Time;durP1;ratioP1;P1;durP2;ratioP2;P2;SDS_P1;SDS_P2;PMS_P1;PMS_P2;Temp;Humidity;BMP_temperature;BMP_pressure;BME280_temperature;BME280_humidity;BME280_pressure;Samples;Min_cycle;Max_cycle;Signal;HPM_P1;HPM_P2
2022/11/15 00:00:04;;;;;;;33.43;29.90;;;7.50;99.90;;;;;;5075266;28;20498;-77
2022/11/15 00:02:51;;;;;;;32.33;29.33;;;7.50;99.90;;;;;;5075312;28;20477;-77
2022/11/15 00:05:37;;;;;;;33.10;29.93;;;7.40;99.90;;;;;;5074465;28;20529;-77
2022/11/15 00:08:24;;;;;;;31.10;28.20;;;7.40;99.90;;;;;;5074565;28;20433;-77
2022/11/15 00:11:13;;;;;;;31.83;28.90;;;7.40;99.90;;;;;;5074517;28;20435;-77
2022/11/15 00:14:02;;;;;;;29.50;26.60;;;7.40;99.90;;;;;;5075046;28;20468;-77
2022/11/15 00:16:48;;;;;;;29.47;26.77;;;7.30;99.90;;;;;;5076200;28;20447;-77
2022/11/15 00:19:35;;;;;;;31.10;28.30;;;7.30;99.90;;;;;;5076467;28;20808;-77
2022/11/15 00:22:21;;;;;;;28.97;25.90;;;7.30;99.90;;;;;;5076852;28;20478;-77
2022/11/15 00:25:08;;;;;;;29.83;26.87;;;7.30;99.90;;;;;;5079172;28;20440;-76
2022/11/15 00:27:58;;;;;;;31.13;28.13;;;7.30;99.90;;;;;;5085495;28;20425;-77
2022/11/15 00:30:44;;;;;;;29.47;26.37;;;7.20;99.90;;;;;;5081184;28;20521;-76
2022/11/15 00:33:31;;;;;;;28.17;25.57;;;7.20;99.90;;;;;;5077320;28;20504;-77
2022/11/15 00:36:19;;;;;;;27.37;24.67;;;7.20;99.90;;;;;;5077363;28;20422;-77
2022/11/15 00:39:07;;;;;;;28.77;25.77;;;7.20;99.90;;;;;;5075820;28;20975;-77
2022/11/15 00:41:54;;;;;;;28.50;25.83;;;7.10;99.90;;;;;;5074399;28;20525;-77
2022/11/15 00:44:41;;;;;;;28.00;25.10;;;7.10;99.90;;;;;;5074395;28;20445;-77
2022/11/15 00:47:28;;;;;;;26.93;24.37;;;7.10;99.90;;;;;;5074261;28;20455;-77
2022/11/15 00:50:15;;;;;;;27.63;24.93;;;7.10;99.90;;;;;;5073683;28;20552;-77
2022/11/15 00:53:01;;;;;;;29.43;26.33;;;7.10;99.90;;;;;;5073619;28;20529;-77
2022/11/15 00:55:48;;;;;;;28.60;25.63;;;7.10;99.90;;;;;;5073716;28;20947;-77
2022/11/15 00:58:34;;;;;;;26.10;23.50;;;7.10;99.90;;;;;;5073942;28;20461;-77
2022/11/15 01:01:22;;;;;;;29.33;26.33;;;7.00;99.90;;;;;;5073808;28;20426;-77
2022/11/15 01:04:09;;;;;;;28.50;25.70;;;7.00;99.90;;;;;;5073379;28;20604;-77
2022/11/15 01:06:55;;;;;;;27.77;25.07;;;7.00;99.90;;;;;;5073652;28;20421;-77
2022/11/15 01:09:42;;;;;;;28.53;25.83;;;7.00;99.90;;;;;;5073655;28;20492;-77
2022/11/15 01:12:28;;;;;;;28.90;25.93;;;7.00;99.90;;;;;;5073211;28;20474;-77
2022/11/15 01:15:15;;;;;;;26.40;23.90;;;7.00;99.90;;;;;;5073564;28;20578;-77
2022/11/15 01:18:03;;;;;;;26.70;24.10;;;7.00;99.90;;;;;;5073583;28;20985;-77
2022/11/15 01:20:49;;;;;;;28.33;25.67;;;6.90;99.90;;;;;;5073413;28;20495;-77
2022/11/15 01:23:36;;;;;;;27.20;24.63;;;6.90;99.90;;;;;;5073206;28;20460;-77
2022/11/15 01:26:24;;;;;;;26.83;24.33;;;6.90;99.90;;;;;;5073512;28;20565;-77
2022/11/15 01:29:10;;;;;;;25.90;23.30;;;6.80;99.90;;;;;;5073175;28;20981;-77
2022/11/15 01:31:57;;;;;;;27.10;24.60;;;6.80;99.90;;;;;;5073088;28;20936;-77
2022/11/15 01:34:45;;;;;;;27.63;25.13;;;6.80;99.90;;;;;;5073132;28;20418;-77
2022/11/15 01:37:32;;;;;;;25.90;23.30;;;6.80;99.90;;;;;;5073386;28;20492;-77
2022/11/15 01:40:18;;;;;;;26.83;24.20;;;6.70;99.90;;;;;;5073191;28;20473;-77
2022/11/15 01:43:22;;;;;;;26.30;23.50;;;6.70;99.90;;;;;;5072955;28;20513;-77
2022/11/15 01:46:23;;;;;;;24.30;21.90;;;6.70;99.90;;;;;;5075315;28;20793;-78
2022/11/15 01:49:15;;;;;;;24.90;22.33;;;6.70;99.90;;;;;;5076983;28;20438;-77
2022/11/15 01:52:06;;;;;;;27.80;25.00;;;6.60;99.90;;;;;;5076805;28;20421;-77
2022/11/15 01:54:57;;;;;;;26.40;23.77;;;6.60;99.90;;;;;;5076572;28;20549;-77
2022/11/15 01:57:48;;;;;;;26.57;23.83;;;6.60;99.90;;;;;;5076850;28;20424;-77
2022/11/15 02:00:35;;;;;;;29.27;26.47;;;6.50;99.90;;;;;;5076535;28;20455;-77
2022/11/15 02:03:26;;;;;;;26.60;23.70;;;6.50;99.90;;;;;;5076160;28;20472;-77
2022/11/15 02:06:13;;;;;;;27.93;25.03;;;6.50;99.90;;;;;;5076972;28;20467;-77
2022/11/15 02:09:02;;;;;;;26.93;24.20;;;6.50;99.90;;;;;;5076622;28;20511;-77
2022/11/15 02:11:51;;;;;;;28.70;25.73;;;6.50;99.90;;;;;;5076483;28;20512;-77
2022/11/15 02:14:40;;;;;;;28.20;25.50;;;6.60;99.90;;;;;;5076266;28;20787;-77
2022/11/15 02:17:38;;;;;;;27.93;25.00;;;6.60;99.90;;;;;;5075945;28;20479;-77
2022/11/15 02:20:43;;;;;;;29.80;26.80;;;6.60;99.90;;;;;;5075990;28;20458;-77
2022/11/15 02:24:00;;;;;;;29.53;26.63;;;6.60;99.90;;;;;;5076072;28;20488;-77
2022/11/15 02:27:19;;;;;;;27.53;24.57;;;6.60;99.90;;;;;;5076510;28;20553;-77
2022/11/15 02:30:32;;;;;;;28.70;25.80;;;6.70;99.90;;;;;;5076265;28;20417;-77
2022/11/15 02:33:32;;;;;;;27.63;24.73;;;6.70;99.90;;;;;;5075555;28;20488;-77
2022/11/15 02:36:30;;;;;;;28.80;25.83;;;6.70;99.90;;;;;;5076371;28;20472;-77
2022/11/15 02:39:26;;;;;;;28.03;25.27;;;6.80;99.90;;;;;;5076274;28;20500;-77
2022/11/15 02:45:24;;;;;;;27.40;24.60;;;6.90;99.90;;;;;;5075529;28;20492;-77
2022/11/15 02:48:13;;;;;;;29.80;26.80;;;6.90;99.90;;;;;;5075635;28;20421;-77
2022/11/15 02:51:00;;;;;;;31.00;27.83;;;6.90;99.90;;;;;;5075938;28;20573;-77
2022/11/15 02:53:46;;;;;;;27.30;24.70;;;7.00;99.90;;;;;;5075778;28;20824;-77
2022/11/15 02:56:33;;;;;;;28.40;25.67;;;7.00;99.90;;;;;;5074667;28;20449;-77
2022/11/15 02:59:36;;;;;;;28.20;25.33;;;7.00;99.90;;;;;;5075351;28;20954;-77
2022/11/15 03:02:37;;;;;;;29.67;26.77;;;7.10;99.90;;;;;;5075481;28;20591;-77
2022/11/15 03:05:33;;;;;;;30.00;27.00;;;7.10;99.90;;;;;;5075217;28;20475;-77
2022/11/15 03:08:30;;;;;;;28.67;25.77;;;7.10;99.90;;;;;;5075242;28;20435;-77
2022/11/15 03:11:18;;;;;;;29.53;26.73;;;7.20;99.90;;;;;;5075654;28;20889;-77
2022/11/15 03:14:14;;;;;;;30.03;27.13;;;7.20;99.90;;;;;;5075074;28;20511;-77
2022/11/15 03:17:09;;;;;;;28.93;26.10;;;7.20;99.90;;;;;;5074862;28;20480;-77
2022/11/15 03:19:59;;;;;;;29.63;26.83;;;7.30;99.90;;;;;;5077339;28;20576;-77
2022/11/15 03:22:49;;;;;;;29.60;26.73;;;7.30;99.90;;;;;;5078521;28;20633;-77
2022/11/15 03:25:39;;;;;;;31.50;28.30;;;7.30;99.90;;;;;;5076877;28;20814;-77
2022/11/15 03:28:33;;;;;;;32.20;29.10;;;7.40;99.90;;;;;;5076646;28;20424;-78
2022/11/15 03:34:40;;;;;;;31.30;28.20;;;7.50;99.90;;;;;;5075810;28;20419;-78
2022/11/15 03:37:33;;;;;;;30.60;27.50;;;7.50;99.90;;;;;;5075640;28;20471;-78
2022/11/15 03:40:26;;;;;;;30.00;27.07;;;7.50;99.90;;;;;;5079475;28;20494;-77
2022/11/15 03:43:22;;;;;;;29.13;26.40;;;7.60;99.90;;;;;;5076687;28;20489;-77
2022/11/15 03:46:15;;;;;;;30.00;27.17;;;7.60;99.90;;;;;;5075530;28;20439;-77
2022/11/15 03:49:11;;;;;;;28.17;25.50;;;7.60;99.90;;;;;;5075594;28;20444;-77
2022/11/15 03:51:58;;;;;;;29.80;27.00;;;7.60;99.90;;;;;;5074492;28;20531;-78
2022/11/15 03:54:53;;;;;;;29.20;26.37;;;7.70;99.90;;;;;;5074646;28;20429;-77
2022/11/15 03:57:41;;;;;;;29.67;26.93;;;7.70;99.90;;;;;;5074494;28;20436;-78
2022/11/15 04:00:29;;;;;;;23.37;21.20;;;7.70;99.90;;;;;;5074448;28;20460;-77
2022/11/15 04:03:16;;;;;;;28.23;25.40;;;7.70;99.90;;;;;;5074481;28;20549;-77
2022/11/15 04:06:02;;;;;;;28.57;25.77;;;7.80;99.90;;;;;;5074153;28;20435;-77
2022/11/15 04:08:48;;;;;;;30.30;27.30;;;7.70;99.90;;;;;;5074530;28;20431;-78
2022/11/15 04:11:35;;;;;;;28.97;25.97;;;7.80;99.90;;;;;;5074040;28;20781;-78
2022/11/15 04:14:23;;;;;;;29.90;27.10;;;7.80;99.90;;;;;;5073859;28;20451;-78
2022/11/15 04:17:10;;;;;;;29.47;26.50;;;7.80;99.90;;;;;;5073925;28;20775;-77
2022/11/15 04:26:11;;;;;;;30.83;27.90;;;7.90;99.90;;;;;;5074000;28;20423;-78
2022/11/15 04:32:03;;;;;;;32.63;29.13;;;7.90;99.90;;;;;;5073527;28;20556;-77
2022/11/15 04:34:50;;;;;;;30.07;27.10;;;8.00;99.90;;;;;;5074182;28;20433;-77
2022/11/15 04:37:36;;;;;;;30.37;27.27;;;8.00;99.90;;;;;;5073771;28;20437;-77
2022/11/15 04:40:23;;;;;;;28.70;26.07;;;8.00;99.90;;;;;;5074050;28;20557;-77
2022/11/15 04:43:10;;;;;;;28.03;25.43;;;8.00;99.90;;;;;;5073889;28;20586;-77
2022/11/15 04:45:56;;;;;;;30.40;27.47;;;8.10;99.90;;;;;;5073923;28;20506;-77
2022/11/15 04:48:44;;;;;;;28.27;25.47;;;8.10;99.90;;;;;;5074050;28;20445;-78
2022/11/15 04:51:31;;;;;;;29.57;26.63;;;8.10;99.90;;;;;;5073815;28;20424;-78
2022/11/15 04:54:17;;;;;;;27.93;25.07;;;8.10;99.90;;;;;;5073829;28;20466;-77
2022/11/15 04:57:04;;;;;;;29.20;26.40;;;8.20;99.90;;;;;;5073743;28;20790;-78
2022/11/15 04:59:51;;;;;;;30.17;27.27;;;8.20;99.90;;;;;;5074216;28;20467;-77
2022/11/15 05:05:43;;;;;;;30.43;27.60;;;8.20;99.90;;;;;;5074024;28;21003;-77
2022/11/15 05:08:30;;;;;;;28.67;25.87;;;8.30;99.90;;;;;;5073944;28;20439;-77
2022/11/15 05:11:17;;;;;;;28.63;26.00;;;8.30;99.90;;;;;;5073871;28;20415;-77
2022/11/15 05:14:03;;;;;;;28.43;25.47;;;8.30;99.90;;;;;;5073948;28;20459;-78
2022/11/15 05:16:50;;;;;;;27.33;24.83;;;8.30;99.90;;;;;;5073363;28;20509;-77
2022/11/15 05:19:36;;;;;;;28.40;25.60;;;8.30;99.90;;;;;;5073952;28;20916;-78
2022/11/15 05:22:24;;;;;;;28.17;25.47;;;8.30;99.90;;;;;;5077549;28;20933;-78
2022/11/15 05:25:11;;;;;;;31.73;28.63;;;8.40;99.90;;;;;;5077011;28;20426;-77
2022/11/15 05:27:58;;;;;;;29.47;26.53;;;8.40;99.90;;;;;;5077603;28;20427;-77
2022/11/15 05:30:45;;;;;;;27.87;25.17;;;8.40;99.90;;;;;;5077277;28;20785;-78
2022/11/15 05:33:32;;;;;;;30.27;27.53;;;8.40;99.90;;;;;;5077427;28;20472;-78
2022/11/15 05:36:26;;;;;;;29.90;27.00;;;8.50;99.90;;;;;;5077144;28;20420;-78
2022/11/15 05:39:14;;;;;;;28.70;25.80;;;8.50;99.90;;;;;;5076737;28;20432;-78
2022/11/15 05:42:05;;;;;;;27.60;25.00;;;8.50;99.90;;;;;;5076510;28;20464;-78
2022/11/15 05:44:52;;;;;;;27.00;24.30;;;8.50;99.90;;;;;;5076651;28;20929;-77
2022/11/15 05:47:40;;;;;;;26.10;23.67;;;8.50;99.90;;;;;;5076695;28;20420;-78
2022/11/15 05:50:27;;;;;;;26.83;24.03;;;8.60;99.90;;;;;;5076846;28;20441;-77
2022/11/15 05:53:15;;;;;;;26.87;24.20;;;8.60;99.90;;;;;;5076509;28;20554;-78
2022/11/15 05:56:05;;;;;;;27.10;24.50;;;8.60;99.90;;;;;;5076591;28;20423;-78
2022/11/15 05:58:53;;;;;;;27.50;24.90;;;8.60;99.90;;;;;;5076755;28;20424;-77
2022/11/15 06:01:45;;;;;;;27.17;24.50;;;8.70;99.90;;;;;;5076431;28;20452;-78
2022/11/15 06:04:32;;;;;;;26.97;24.37;;;8.70;99.90;;;;;;5076714;28;21052;-78
2022/11/15 06:07:18;;;;;;;24.87;22.47;;;8.70;99.90;;;;;;5076656;28;20526;-77
2022/11/15 06:10:06;;;;;;;24.90;22.70;;;8.70;99.90;;;;;;5076550;28;20424;-77
2022/11/15 06:12:59;;;;;;;27.27;24.57;;;8.70;99.90;;;;;;5076445;28;21008;-77
2022/11/15 06:15:46;;;;;;;26.80;24.30;;;8.80;99.90;;;;;;5076688;28;20451;-78
2022/11/15 06:18:34;;;;;;;27.60;25.00;;;8.80;99.90;;;;;;5076782;28;20429;-78
2022/11/15 06:21:21;;;;;;;26.80;24.10;;;8.80;99.90;;;;;;5076175;28;21016;-78
2022/11/15 06:24:08;;;;;;;25.97;23.47;;;8.90;99.90;;;;;;5076297;28;20519;-77
2022/11/15 06:26:55;;;;;;;25.17;22.87;;;8.80;99.90;;;;;;5076359;28;20471;-77
2022/11/15 06:29:43;;;;;;;24.87;22.67;;;8.90;99.90;;;;;;5076333;28;20466;-77
2022/11/15 06:32:30;;;;;;;24.53;22.40;;;8.90;99.90;;;;;;5074742;28;21006;-77
2022/11/15 06:35:18;;;;;;;26.57;24.17;;;8.90;99.90;;;;;;5075873;28;20431;-78
2022/11/15 06:38:06;;;;;;;25.73;23.27;;;8.90;99.90;;;;;;5076852;28;20837;-77
2022/11/15 06:40:53;;;;;;;26.37;23.87;;;9.00;99.90;;;;;;5075571;28;20987;-77
2022/11/15 06:43:40;;;;;;;26.40;23.90;;;9.00;99.90;;;;;;5075928;28;20495;-78
2022/11/15 06:46:28;;;;;;;26.20;23.67;;;9.00;99.90;;;;;;5075948;28;20522;-78
2022/11/15 06:49:16;;;;;;;24.37;22.17;;;9.00;99.90;;;;;;5075865;28;20821;-78
2022/11/15 06:52:03;;;;;;;24.80;22.30;;;9.00;99.90;;;;;;5075720;28;20417;-78
2022/11/15 06:54:50;;;;;;;26.37;23.80;;;9.10;99.90;;;;;;5076057;28;20429;-78
2022/11/15 06:57:37;;;;;;;25.77;23.20;;;9.10;99.90;;;;;;5076167;28;20429;-78
2022/11/15 07:00:23;;;;;;;26.37;23.97;;;9.10;99.90;;;;;;5075418;28;20515;-78
2022/11/15 07:03:11;;;;;;;29.67;26.50;;;9.10;99.90;;;;;;5075441;28;20558;-78
2022/11/15 07:05:59;;;;;;;24.90;22.50;;;9.20;99.90;;;;;;5075498;28;20503;-78
2022/11/15 07:08:52;;;;;;;28.00;24.80;;;9.20;99.90;;;;;;5075391;28;20559;-78
2022/11/15 07:11:39;;;;;;;28.00;25.37;;;9.20;99.90;;;;;;5075523;28;20790;-78
2022/11/15 07:14:25;;;;;;;25.27;22.63;;;9.20;99.90;;;;;;5075322;28;20424;-78
2022/11/15 07:17:11;;;;;;;24.37;22.00;;;9.20;99.90;;;;;;5075512;28;20515;-78
2022/11/15 07:19:59;;;;;;;23.70;21.50;;;9.30;99.90;;;;;;5077061;28;20559;-78
2022/11/15 07:22:46;;;;;;;23.33;21.23;;;9.30;99.90;;;;;;5077487;28;20476;-77
2022/11/15 07:25:34;;;;;;;24.30;22.00;;;9.30;99.90;;;;;;5076147;28;20499;-77
2022/11/15 07:28:23;;;;;;;25.30;22.70;;;9.30;99.90;;;;;;5076090;28;20475;-77
2022/11/15 07:31:10;;;;;;;26.60;23.80;;;9.40;99.90;;;;;;5075374;28;20421;-76
2022/11/15 07:33:57;;;;;;;32.43;24.77;;;9.40;99.90;;;;;;5074970;28;20993;-76
2022/11/15 07:36:45;;;;;;;28.60;25.50;;;9.40;99.90;;;;;;5074879;28;20552;-76
2022/11/15 07:39:31;;;;;;;24.90;22.13;;;9.50;99.90;;;;;;5075227;28;20468;-76
2022/11/15 07:45:25;;;;;;;25.20;22.83;;;9.50;99.90;;;;;;5074963;28;20466;-76
2022/11/15 07:48:12;;;;;;;39.93;30.97;;;9.60;99.90;;;;;;5074731;28;20504;-75
2022/11/15 07:50:58;;;;;;;36.07;27.00;;;9.60;99.90;;;;;;5075008;28;20515;-75
2022/11/15 07:53:46;;;;;;;26.00;23.50;;;9.70;99.90;;;;;;5075344;28;20549;-76
2022/11/15 07:56:33;;;;;;;25.23;22.67;;;9.70;99.90;;;;;;5074386;28;20445;-76
2022/11/15 07:59:20;;;;;;;25.00;21.90;;;9.80;99.90;;;;;;5074724;28;20428;-76
2022/11/15 08:02:07;;;;;;;24.23;22.03;;;9.90;99.90;;;;;;5074155;28;20479;-76
2022/11/15 08:04:54;;;;;;;25.80;23.40;;;9.90;99.90;;;;;;5074018;28;20799;-76
2022/11/15 08:07:41;;;;;;;23.50;21.30;;;9.90;99.90;;;;;;5074437;28;20567;-76
2022/11/15 08:10:29;;;;;;;26.47;24.07;;;10.00;99.90;;;;;;5073921;28;20420;-75
2022/11/15 08:13:16;;;;;;;27.03;24.33;;;10.00;99.90;;;;;;5074361;28;20480;-76
2022/11/15 08:16:05;;;;;;;25.10;22.83;;;10.00;99.90;;;;;;5074055;28;20529;-76
2022/11/15 08:18:52;;;;;;;25.90;23.20;;;10.10;99.90;;;;;;5073916;28;20463;-75
2022/11/15 08:21:38;;;;;;;25.07;22.67;;;10.10;99.90;;;;;;5073612;28;20466;-76
2022/11/15 08:24:24;;;;;;;24.93;22.67;;;10.10;99.90;;;;;;5074248;28;20428;-76
2022/11/15 08:27:15;;;;;;;24.60;22.23;;;10.20;99.90;;;;;;5074386;28;20433;-76
2022/11/15 08:30:02;;;;;;;24.87;22.47;;;10.20;99.90;;;;;;5073886;28;20448;-76
2022/11/15 08:32:49;;;;;;;29.90;26.90;;;10.30;99.90;;;;;;5073794;28;20985;-75
2022/11/15 08:35:35;;;;;;;28.07;25.60;;;10.30;99.90;;;;;;5074179;28;20988;-75
2022/11/15 08:38:22;;;;;;;27.00;24.47;;;10.30;99.90;;;;;;5074021;28;20437;-76
2022/11/15 08:41:14;;;;;;;25.73;23.23;;;10.40;99.90;;;;;;5073991;28;20479;-75
2022/11/15 08:44:02;;;;;;;26.40;22.33;;;10.40;99.90;;;;;;5073254;28;20470;-75
2022/11/15 08:46:49;;;;;;;25.53;23.23;;;10.50;99.90;;;;;;5073740;28;20564;-76
2022/11/15 08:49:35;;;;;;;29.07;26.23;;;10.50;99.90;;;;;;5073914;28;20925;-75
2022/11/15 08:52:22;;;;;;;26.73;24.33;;;10.60;99.90;;;;;;5074088;28;20464;-75
2022/11/15 08:55:09;;;;;;;26.30;23.60;;;10.60;99.90;;;;;;5072872;28;20780;-75
2022/11/15 08:57:58;;;;;;;26.30;23.70;;;10.60;99.90;;;;;;5073586;28;20516;-75
2022/11/15 09:00:46;;;;;;;29.17;23.10;;;10.70;99.90;;;;;;5073451;28;20425;-76
2022/11/15 09:03:32;;;;;;;22.53;20.40;;;10.70;99.90;;;;;;5073213;28;20542;-76
2022/11/15 09:06:19;;;;;;;26.63;24.23;;;10.80;99.90;;;;;;5074042;28;20420;-75
2022/11/15 09:09:06;;;;;;;25.50;23.20;;;10.80;99.90;;;;;;5073395;28;20436;-76
2022/11/15 09:11:52;;;;;;;25.73;23.47;;;10.80;99.90;;;;;;5073492;28;20429;-76
2022/11/15 09:14:46;;;;;;;25.57;23.27;;;10.90;99.90;;;;;;5073397;28;20506;-76
2022/11/15 09:17:34;;;;;;;67.57;32.10;;;10.90;99.90;;;;;;5073300;28;20923;-75
2022/11/15 09:20:21;;;;;;;36.30;32.70;;;10.90;99.90;;;;;;5073015;28;20436;-75
2022/11/15 09:23:07;;;;;;;34.93;31.33;;;11.00;99.90;;;;;;5073090;28;20838;-76
2022/11/15 09:26:00;;;;;;;26.67;24.27;;;11.00;99.90;;;;;;5073206;28;20418;-76
2022/11/15 09:28:46;;;;;;;24.90;22.77;;;11.00;99.90;;;;;;5073231;28;20425;-76
2022/11/15 09:31:33;;;;;;;26.27;23.90;;;11.10;99.90;;;;;;5073423;28;20436;-75
2022/11/15 09:34:21;;;;;;;25.90;23.70;;;11.10;99.90;;;;;;5073725;28;20417;-75
2022/11/15 09:37:08;;;;;;;23.53;21.50;;;11.20;99.90;;;;;;5072979;28;20421;-75
2022/11/15 09:39:54;;;;;;;27.70;25.20;;;11.30;99.90;;;;;;5073127;28;20486;-76
2022/11/15 09:42:57;;;;;;;27.80;25.20;;;11.30;99.90;;;;;;5073544;28;20472;-76
2022/11/15 09:45:57;;;;;;;21.87;19.87;;;11.40;99.90;;;;;;5073696;28;20920;-75
2022/11/15 09:48:56;;;;;;;23.13;20.93;;;11.50;99.90;;;;;;5071796;28;20437;-76
2022/11/15 09:51:46;;;;;;;187.63;42.93;;;11.50;99.90;;;;;;5071602;28;20449;-76
2022/11/15 09:54:24;;;;;;;20.97;18.63;;;11.60;99.90;;;;;;5071557;28;20437;-76
2022/11/15 09:57:15;;;;;;;19.27;17.43;;;11.70;99.90;;;;;;5072765;28;20442;-77
2022/11/15 10:00:11;;;;;;;21.30;16.33;;;11.70;99.90;;;;;;5071465;28;20923;-76
2022/11/15 10:03:11;;;;;;;17.77;16.07;;;11.80;99.90;;;;;;5071353;28;20479;-78
2022/11/15 10:05:42;;;;;;;18.00;16.40;;;11.90;99.90;;;;;;5076678;28;20980;-77
2022/11/15 10:08:28;;;;;;;16.77;14.87;;;11.90;99.90;;;;;;5081285;28;20433;-77
2022/11/15 10:10:58;;;;;;;15.10;13.70;;;12.00;99.90;;;;;;5081820;28;20508;-77
2022/11/15 10:13:49;;;;;;;15.00;13.60;;;12.10;99.90;;;;;;5082813;28;20465;-77
2022/11/15 10:16:37;;;;;;;16.80;15.10;;;12.10;99.90;;;;;;5091052;28;20433;-76
2022/11/15 10:19:14;;;;;;;16.80;15.03;;;12.10;99.90;;;;;;5091703;28;20447;-77
2022/11/15 10:21:52;;;;;;;14.67;13.17;;;12.20;99.90;;;;;;5093927;28;20453;-78
2022/11/15 10:24:27;;;;;;;14.70;13.30;;;12.20;99.90;;;;;;5087135;28;20461;-78
2022/11/15 10:26:57;;;;;;;20.30;13.90;;;12.30;99.90;;;;;;5086315;28;21022;-78
2022/11/15 10:29:25;;;;;;;28.43;16.20;;;12.30;99.90;;;;;;5083680;28;20438;-77
2022/11/15 10:31:54;;;;;;;18.17;14.77;;;12.30;99.90;;;;;;5076451;28;20508;-78
2022/11/15 10:34:24;;;;;;;15.90;13.60;;;12.40;99.90;;;;;;5075703;28;20449;-78
2022/11/15 10:36:56;;;;;;;14.83;13.33;;;12.40;99.90;;;;;;5074590;28;20491;-78
2022/11/15 10:39:27;;;;;;;13.70;12.50;;;12.40;99.90;;;;;;5074492;28;20797;-78
2022/11/15 10:41:55;;;;;;;14.23;12.83;;;12.50;99.90;;;;;;5076039;28;20418;-78
2022/11/15 10:44:27;;;;;;;14.07;12.60;;;12.50;99.90;;;;;;5074327;28;20465;-78
2022/11/15 10:47:34;;;;;;;12.37;11.10;;;12.50;99.90;;;;;;5074324;28;20459;-77
2022/11/15 10:50:25;;;;;;;13.10;11.90;;;12.60;99.90;;;;;;5074135;28;20511;-78
2022/11/15 10:52:54;;;;;;;14.30;12.17;;;12.60;99.90;;;;;;5074088;28;20473;-78
2022/11/15 10:55:30;;;;;;;13.83;12.40;;;12.70;99.90;;;;;;5075641;28;20437;-77
2022/11/15 10:58:07;;;;;;;11.73;10.63;;;12.70;99.90;;;;;;5075667;28;20448;-78
2022/11/15 11:00:38;;;;;;;11.53;10.43;;;12.80;99.90;;;;;;5074230;28;20437;-78
2022/11/15 11:03:20;;;;;;;11.57;10.47;;;12.90;99.90;;;;;;5076121;28;20495;-78
2022/11/15 11:05:49;;;;;;;19.33;11.63;;;13.00;99.90;;;;;;5079512;28;20445;-78
2022/11/15 11:08:24;;;;;;;12.43;11.23;;;13.00;99.90;;;;;;5077208;28;20453;-78
2022/11/15 11:10:59;;;;;;;10.93;9.93;;;13.10;99.90;;;;;;5074440;28;20539;-79
2022/11/15 11:13:32;;;;;;;10.37;9.47;;;13.10;99.90;;;;;;5074636;28;20560;-78
2022/11/15 11:16:19;;;;;;;15.70;11.50;;;13.20;99.90;;;;;;5079139;28;20437;-79
2022/11/15 11:19:02;;;;;;;11.60;10.40;;;13.20;99.90;;;;;;5078077;28;20445;-78
2022/11/15 11:21:43;;;;;;;10.00;9.00;;;13.30;99.90;;;;;;5076145;28;20455;-79
2022/11/15 11:24:19;;;;;;;10.30;9.40;;;13.40;99.90;;;;;;5077616;28;20475;-79
2022/11/15 11:27:00;;;;;;;10.50;9.60;;;13.40;99.90;;;;;;5077037;28;20425;-79
2022/11/15 11:29:40;;;;;;;9.57;8.67;;;13.50;99.90;;;;;;5074520;28;20452;-79
2022/11/15 11:32:33;;;;;;;9.83;8.93;;;13.60;99.90;;;;;;5074934;28;20853;-79
2022/11/15 11:35:10;;;;;;;11.43;8.70;;;13.70;99.90;;;;;;5074108;28;20437;-79
2022/11/15 11:37:46;;;;;;;11.20;10.10;;;13.70;99.90;;;;;;5074616;28;20471;-79
2022/11/15 11:40:30;;;;;;;8.20;7.20;;;13.80;99.90;;;;;;5074027;28;20443;-79
2022/11/15 11:43:10;;;;;;;9.90;7.50;;;13.90;99.90;;;;;;5074978;28;20969;-79
2022/11/15 11:45:58;;;;;;;8.53;7.33;;;13.90;99.90;;;;;;5074903;28;20436;-78
2022/11/15 11:48:40;;;;;;;7.60;6.90;;;13.90;99.90;;;;;;5074796;28;20429;-79
2022/11/15 11:51:17;;;;;;;7.67;6.93;;;14.00;99.90;;;;;;5076350;28;20441;-79
2022/11/15 11:53:53;;;;;;;7.10;6.40;;;14.00;99.90;;;;;;5077584;28;20467;-79
2022/11/15 11:56:29;;;;;;;8.20;7.13;;;14.00;99.90;;;;;;5078229;28;20448;-79
2022/11/15 11:59:13;;;;;;;7.23;6.50;;;14.10;99.90;;;;;;5073708;28;20856;-79
2022/11/15 12:01:43;;;;;;;7.37;6.67;;;14.10;99.90;;;;;;5074576;28;20426;-79
2022/11/15 12:04:20;;;;;;;8.30;6.23;;;14.20;99.90;;;;;;5073521;28;20501;-79
2022/11/15 12:06:53;;;;;;;11.80;10.13;;;14.20;99.90;;;;;;5074259;28;20519;-78
2022/11/15 12:09:27;;;;;;;10.97;8.60;;;14.20;99.90;;;;;;5074197;28;20825;-78
2022/11/15 12:12:02;;;;;;;5.77;5.17;;;14.20;99.90;;;;;;5072780;28;20939;-78
2022/11/15 12:14:37;;;;;;;6.40;5.80;;;14.20;99.90;;;;;;5074460;28;20468;-78
2022/11/15 12:17:06;;;;;;;6.57;5.50;;;14.20;99.90;;;;;;5074256;28;20420;-78
2022/11/15 12:19:34;;;;;;;6.13;5.17;;;14.30;99.90;;;;;;5072725;28;20454;-77
2022/11/15 12:22:09;;;;;;;5.60;5.00;;;14.40;99.90;;;;;;5073699;28;20449;-78
2022/11/15 12:24:42;;;;;;;5.77;4.70;;;14.40;99.90;;;;;;5072517;28;20555;-78
2022/11/15 12:27:19;;;;;;;6.30;5.50;;;14.50;99.90;;;;;;5072612;28;20437;-78
2022/11/15 12:29:59;;;;;;;5.53;4.90;;;14.50;99.90;;;;;;5071631;28;20441;-77
2022/11/15 12:32:30;;;;;;;5.60;5.03;;;14.60;99.90;;;;;;5073489;28;20465;-78
2022/11/15 12:34:59;;;;;;;5.20;4.40;;;14.50;99.90;;;;;;5074179;28;20418;-78
2022/11/15 12:37:54;;;;;;;4.70;4.20;;;14.60;99.90;;;;;;5073587;28;20445;-78
2022/11/15 12:40:32;;;;;;;7.20;6.20;;;14.60;99.90;;;;;;5073519;28;20806;-78
2022/11/15 12:43:11;;;;;;;5.87;4.47;;;14.60;99.90;;;;;;5072245;28;20589;-78
2022/11/15 12:45:43;;;;;;;6.27;4.33;;;14.60;99.90;;;;;;5072467;28;20473;-78
2022/11/15 12:48:47;;;;;;;6.07;5.10;;;14.60;99.90;;;;;;5072449;28;20437;-79
2022/11/15 12:51:15;;;;;;;6.43;4.53;;;14.60;99.90;;;;;;5072437;28;20457;-78
2022/11/15 12:53:43;;;;;;;4.70;4.13;;;14.60;99.90;;;;;;5073588;28;20817;-78
2022/11/15 12:56:23;;;;;;;5.80;4.87;;;14.60;99.90;;;;;;5072383;28;20815;-79
2022/11/15 12:58:55;;;;;;;6.70;4.00;;;14.70;99.90;;;;;;5073966;28;20425;-78
2022/11/15 13:02:02;;;;;;;4.03;3.63;;;14.70;99.90;;;;;;5072645;28;20464;-78
2022/11/15 13:04:31;;;;;;;3.87;3.30;;;14.70;99.90;;;;;;5072585;28;20464;-78
2022/11/15 13:07:02;;;;;;;3.87;3.17;;;14.80;99.90;;;;;;5073274;28;20451;-77
2022/11/15 13:09:58;;;;;;;5.00;4.30;;;14.80;99.90;;;;;;5072140;28;20582;-78
2022/11/15 13:12:56;;;;;;;4.10;2.83;;;14.80;99.90;;;;;;5072116;28;20576;-78
2022/11/15 13:15:53;;;;;;;4.23;3.07;;;14.90;99.90;;;;;;5072025;28;20476;-78
2022/11/15 13:18:38;;;;;;;3.70;2.80;;;14.90;99.90;;;;;;5069829;28;20445;-78
2022/11/15 13:24:17;;;;;;;4.30;2.70;;;14.90;99.90;;;;;;5073085;28;20449;-78
2022/11/15 13:26:46;;;;;;;4.90;2.73;;;14.90;99.90;;;;;;5073296;28;20409;-78
2022/11/15 13:29:17;;;;;;;3.87;2.00;;;14.90;99.90;;;;;;5073299;28;20461;-78
2022/11/15 13:31:46;;;;;;;3.83;2.77;;;14.90;99.90;;;;;;5071824;28;20515;-78
2022/11/15 13:34:29;;;;;;;4.10;2.80;;;14.90;99.90;;;;;;5071902;28;20453;-78
2022/11/15 13:37:32;;;;;;;5.83;3.83;;;15.00;99.90;;;;;;5071611;28;20451;-78
2022/11/15 13:40:23;;;;;;;5.27;3.63;;;14.90;99.90;;;;;;5072975;28;20474;-78
2022/11/15 13:42:51;;;;;;;4.60;2.80;;;15.00;99.90;;;;;;5076284;28;20459;-78
2022/11/15 13:45:20;;;;;;;4.87;2.37;;;15.00;99.90;;;;;;5076746;28;20472;-78
2022/11/15 13:47:58;;;;;;;3.40;2.30;;;15.00;99.90;;;;;;5076854;28;20433;-78
2022/11/15 13:50:33;;;;;;;4.20;2.20;;;15.00;99.90;;;;;;5076632;28;20480;-78
2022/11/15 13:53:03;;;;;;;3.37;2.40;;;15.00;99.90;;;;;;5075297;28;20443;-79
2022/11/15 13:55:33;;;;;;;3.37;2.20;;;15.00;99.90;;;;;;5075444;28;20445;-79
2022/11/15 13:58:05;;;;;;;7.00;4.70;;;15.00;99.90;;;;;;5075411;28;20448;-79
2022/11/15 14:00:37;;;;;;;3.10;2.43;;;15.00;99.90;;;;;;5076493;28;20428;-79
2022/11/15 14:03:16;;;;;;;3.30;2.50;;;14.90;99.90;;;;;;5076678;28;20453;-78
2022/11/15 14:06:02;;;;;;;3.40;2.60;;;14.90;99.90;;;;;;5076641;28;20457;-78
2022/11/15 14:08:30;;;;;;;3.13;2.23;;;14.90;99.90;;;;;;5074993;28;20433;-78
2022/11/15 14:11:13;;;;;;;3.60;2.53;;;14.80;99.90;;;;;;5074811;28;20450;-77
2022/11/15 14:13:41;;;;;;;4.13;2.57;;;14.80;99.90;;;;;;5076414;28;20457;-78
2022/11/15 14:16:20;;;;;;;4.00;2.20;;;14.80;99.90;;;;;;5076001;28;20436;-78
2022/11/15 14:18:50;;;;;;;3.40;2.03;;;14.70;99.90;;;;;;5074601;28;20416;-78
2022/11/15 14:21:21;;;;;;;4.00;2.00;;;14.70;99.90;;;;;;5075756;28;20555;-78
2022/11/15 14:23:50;;;;;;;3.17;2.00;;;14.70;99.90;;;;;;5075983;28;20500;-78
2022/11/15 14:26:30;;;;;;;4.50;2.37;;;14.60;99.90;;;;;;5074637;28;20468;-78
2022/11/15 14:28:58;;;;;;;5.40;2.40;;;14.60;99.90;;;;;;5074716;28;20430;-77
2022/11/15 14:31:26;;;;;;;4.40;2.70;;;14.50;99.90;;;;;;5075748;28;20437;-77